Time;durP1;ratioP1;P1;durP2;ratioP2;P2;SDS_P1;SDS_P2;PMS_P1;PMS_P2;Temp;Humidity;BMP_temperature;BMP_pressure;BME280_temperature;BME280_humidity;BME280_pressure;Samples;Min_cycle;Max_cycle;Signal;HPM_P1;HPM_P2
2023/12/13 00:00:10;;;;;;;2.17;1.05;;;;;;;;;;5102485;28;20117;-67
2023/12/13 00:02:36;;;;;;;1.50;0.68;;;;;;;;;;5102821;28;20047;-67
2023/12/13 00:05:02;;;;;;;1.42;0.70;;;;;;;;;;5106559;28;21401;-67
2023/12/13 00:07:28;;;;;;;1.00;0.50;;;;;;;;;;5104875;28;20024;-67
2023/12/13 00:09:54;;;;;;;1.77;0.60;;;;;;;;;;5106064;28;20461;-69
2023/12/13 00:12:20;;;;;;;1.60;0.77;;;;;;;;;;5104756;28;20098;-67
2023/12/13 00:14:46;;;;;;;3.92;0.90;;;;;;;;;;5107527;28;20019;-67
2023/12/13 00:17:14;;;;;;;3.10;1.10;;;;;;;;;;5105201;28;20027;-67
2023/12/13 00:19:40;;;;;;;1.48;0.90;;;;;;;;;;5106189;28;20044;-67
2023/12/13 00:22:06;;;;;;;3.00;1.00;;;;;;;;;;5112477;28;20037;-68
2023/12/13 00:24:32;;;;;;;3.55;0.90;;;;;;;;;;5114503;28;20099;-68
2023/12/13 00:26:58;;;;;;;2.22;1.10;;;;;;;;;;5112779;28;20027;-68
2023/12/13 00:29:24;;;;;;;3.25;1.30;;;;;;;;;;5114624;27;20450;-68
2023/12/13 00:31:50;;;;;;;3.55;1.20;;;;;;;;;;5113975;28;20028;-68
2023/12/13 00:34:16;;;;;;;2.63;0.93;;;;;;;;;;5113807;27;20016;-67
2023/12/13 00:36:42;;;;;;;5.88;0.85;;;;;;;;;;5113752;28;20020;-68
2023/12/13 00:39:08;;;;;;;2.75;0.50;;;;;;;;;;5113078;28;20024;-66
2023/12/13 00:41:34;;;;;;;2.78;0.55;;;;;;;;;;5113582;28;20490;-66
2023/12/13 00:44:01;;;;;;;1.70;0.50;;;;;;;;;;5113044;28;20040;-67
2023/12/13 00:46:27;;;;;;;1.55;0.60;;;;;;;;;;5113871;28;20051;-67
2023/12/13 00:48:53;;;;;;;5.05;1.00;;;;;;;;;;5113608;28;20054;-67
2023/12/13 00:51:19;;;;;;;2.70;0.70;;;;;;;;;;5112985;28;20520;-68
2023/12/13 00:53:45;;;;;;;1.30;0.50;;;;;;;;;;5114047;28;20051;-67
2023/12/13 00:56:11;;;;;;;3.42;0.70;;;;;;;;;;5112698;28;20084;-67
2023/12/13 00:58:37;;;;;;;1.95;0.57;;;;;;;;;;5113991;27;20024;-67
2023/12/13 01:01:03;;;;;;;2.22;0.90;;;;;;;;;;5107781;28;20012;-67
2023/12/13 01:03:29;;;;;;;3.05;0.70;;;;;;;;;;5113124;28;20031;-67
2023/12/13 01:05:55;;;;;;;3.78;0.65;;;;;;;;;;5113165;28;20023;-68
2023/12/13 01:08:21;;;;;;;0.95;0.52;;;;;;;;;;5113263;28;20089;-67
2023/12/13 01:10:47;;;;;;;2.85;0.80;;;;;;;;;;5113953;27;20052;-67
2023/12/13 01:13:13;;;;;;;1.27;0.60;;;;;;;;;;5111727;27;20020;-67
2023/12/13 01:15:39;;;;;;;3.17;0.60;;;;;;;;;;5113343;28;20028;-67
2023/12/13 01:18:05;;;;;;;2.55;0.40;;;;;;;;;;5106940;28;20043;-67
2023/12/13 01:20:32;;;;;;;3.47;0.50;;;;;;;;;;5113569;28;20111;-67
2023/12/13 01:22:58;;;;;;;2.65;0.60;;;;;;;;;;5112137;28;20059;-68
2023/12/13 01:25:23;;;;;;;1.83;0.60;;;;;;;;;;5113413;28;20016;-68
2023/12/13 01:27:49;;;;;;;1.85;0.43;;;;;;;;;;5112849;28;20385;-68
2023/12/13 01:30:16;;;;;;;4.53;0.40;;;;;;;;;;5112274;28;20045;-68
2023/12/13 01:32:42;;;;;;;2.17;0.50;;;;;;;;;;5112799;28;20031;-68
2023/12/13 01:35:08;;;;;;;1.67;0.43;;;;;;;;;;5112043;28;20019;-67
2023/12/13 01:37:34;;;;;;;3.10;0.60;;;;;;;;;;5112938;28;20035;-67
2023/12/13 01:40:00;;;;;;;2.92;0.57;;;;;;;;;;5111596;28;20024;-67
2023/12/13 01:42:26;;;;;;;0.75;0.20;;;;;;;;;;5112735;28;20095;-67
2023/12/13 01:44:52;;;;;;;1.88;0.40;;;;;;;;;;5113044;27;20376;-68
2023/12/13 01:47:18;;;;;;;0.77;0.38;;;;;;;;;;5111402;28;20024;-68
2023/12/13 01:49:47;;;;;;;1.35;0.38;;;;;;;;;;5113117;28;20020;-67
2023/12/13 01:52:14;;;;;;;3.25;0.47;;;;;;;;;;5111470;28;20646;-68
2023/12/13 01:54:41;;;;;;;4.35;0.70;;;;;;;;;;5113095;28;20099;-67
2023/12/13 01:57:09;;;;;;;3.38;0.43;;;;;;;;;;5111169;28;20027;-68
2023/12/13 01:59:35;;;;;;;1.98;0.40;;;;;;;;;;5112551;28;20480;-67
2023/12/13 02:02:01;;;;;;;2.67;0.60;;;;;;;;;;5106939;28;20035;-68
2023/12/13 02:04:28;;;;;;;4.93;0.40;;;;;;;;;;5112230;28;20161;-67
2023/12/13 02:06:54;;;;;;;2.70;0.30;;;;;;;;;;5110265;28;20047;-68
2023/12/13 02:09:20;;;;;;;3.50;0.40;;;;;;;;;;5112581;28;20104;-67
2023/12/13 02:11:47;;;;;;;0.38;0.22;;;;;;;;;;5112309;28;20099;-67
2023/12/13 02:14:13;;;;;;;2.17;0.35;;;;;;;;;;5111565;28;20036;-67
2023/12/13 02:16:40;;;;;;;3.10;0.38;;;;;;;;;;5111821;28;20027;-67
2023/12/13 02:19:08;;;;;;;3.20;0.50;;;;;;;;;;5109559;28;20400;-67
2023/12/13 02:21:34;;;;;;;3.05;0.47;;;;;;;;;;5111708;28;20020;-67
2023/12/13 02:24:03;;;;;;;3.58;0.38;;;;;;;;;;5111264;28;20034;-67
2023/12/13 02:26:29;;;;;;;3.40;0.40;;;;;;;;;;5110967;28;20055;-68
2023/12/13 02:28:55;;;;;;;1.48;0.22;;;;;;;;;;5110885;28;20143;-69
2023/12/13 02:31:21;;;;;;;3.42;0.50;;;;;;;;;;5111731;28;20415;-68
2023/12/13 02:33:47;;;;;;;3.92;0.60;;;;;;;;;;5111946;28;20031;-67
2023/12/13 02:36:13;;;;;;;2.63;0.30;;;;;;;;;;5110229;28;20094;-68
2023/12/13 02:38:43;;;;;;;7.72;0.68;;;;;;;;;;5111805;28;20039;-67
2023/12/13 02:41:09;;;;;;;3.30;0.30;;;;;;;;;;5110658;28;20059;-66
2023/12/13 02:43:35;;;;;;;1.50;0.93;;;;;;;;;;5111690;28;20027;-68
2023/12/13 02:46:01;;;;;;;5.88;0.43;;;;;;;;;;5110244;28;20015;-68
2023/12/13 02:48:27;;;;;;;3.28;0.73;;;;;;;;;;5111551;28;20480;-66
2023/12/13 02:50:53;;;;;;;3.25;0.63;;;;;;;;;;5111198;28;20056;-67
2023/12/13 02:53:20;;;;;;;2.50;0.43;;;;;;;;;;5109580;28;20081;-66
2023/12/13 02:55:46;;;;;;;3.35;0.73;;;;;;;;;;5110954;28;20028;-66
2023/12/13 02:58:12;;;;;;;4.00;0.57;;;;;;;;;;5109565;28;20458;-67
2023/12/13 03:00:38;;;;;;;4.65;0.75;;;;;;;;;;5108174;28;20100;-67
2023/12/13 03:03:04;;;;;;;6.53;0.80;;;;;;;;;;5108737;28;20153;-67
2023/12/13 03:05:30;;;;;;;5.53;0.60;;;;;;;;;;5109859;28;20519;-66
2023/12/13 03:07:56;;;;;;;4.40;0.63;;;;;;;;;;5110437;28;20119;-67
2023/12/13 03:10:22;;;;;;;2.75;0.80;;;;;;;;;;5110739;28;20043;-66
2023/12/13 03:12:48;;;;;;;7.88;0.63;;;;;;;;;;5111205;28;20106;-66
2023/12/13 03:15:14;;;;;;;2.53;0.30;;;;;;;;;;5110231;28;20667;-66
2023/12/13 03:17:40;;;;;;;1.83;0.40;;;;;;;;;;5109439;28;20020;-67
2023/12/13 03:20:06;;;;;;;4.80;0.50;;;;;;;;;;5107934;28;20023;-66
2023/12/13 03:22:32;;;;;;;2.15;0.50;;;;;;;;;;5111405;28;20086;-67
2023/12/13 03:24:58;;;;;;;4.03;0.50;;;;;;;;;;5110685;28;20467;-67
2023/12/13 03:27:24;;;;;;;4.88;0.63;;;;;;;;;;5111083;28;20016;-67
2023/12/13 03:29:50;;;;;;;2.88;0.45;;;;;;;;;;5111538;28;20127;-66
2023/12/13 03:32:16;;;;;;;6.03;1.30;;;;;;;;;;5110233;28;20360;-67
2023/12/13 03:34:42;;;;;;;3.15;0.80;;;;;;;;;;5111716;28;20530;-67
2023/12/13 03:37:09;;;;;;;3.08;0.40;;;;;;;;;;5109713;28;20034;-67
2023/12/13 03:39:35;;;;;;;5.28;0.80;;;;;;;;;;5112216;28;20081;-67
2023/12/13 03:42:01;;;;;;;2.88;0.50;;;;;;;;;;5114203;28;20547;-67
2023/12/13 03:44:27;;;;;;;2.50;0.57;;;;;;;;;;5115458;27;20016;-66
2023/12/13 03:46:57;;;;;;;0.50;0.40;;;;;;;;;;5114783;28;20108;-67
2023/12/13 03:49:23;;;;;;;3.28;0.50;;;;;;;;;;5115600;27;20465;-67
2023/12/13 03:51:49;;;;;;;0.50;0.38;;;;;;;;;;5114716;28;20527;-67
2023/12/13 03:54:15;;;;;;;3.15;0.43;;;;;;;;;;5114640;28;20015;-67
2023/12/13 03:56:41;;;;;;;1.15;0.35;;;;;;;;;;5114781;28;20406;-67
2023/12/13 03:59:08;;;;;;;2.47;0.60;;;;;;;;;;5114181;28;20069;-67
2023/12/13 04:01:34;;;;;;;2.72;0.47;;;;;;;;;;5114352;28;20019;-67
2023/12/13 04:04:00;;;;;;;0.90;0.40;;;;;;;;;;5114317;28;20448;-67
2023/12/13 04:06:26;;;;;;;2.53;0.52;;;;;;;;;;5114434;28;20034;-67
2023/12/13 04:08:52;;;;;;;2.78;0.63;;;;;;;;;;5115067;28;20027;-67
2023/12/13 04:11:18;;;;;;;3.08;0.70;;;;;;;;;;5113937;28;20024;-67
2023/12/13 04:13:44;;;;;;;4.68;0.98;;;;;;;;;;5115244;28;20027;-66
2023/12/13 04:16:10;;;;;;;3.05;0.82;;;;;;;;;;5113391;28;20030;-67
2023/12/13 04:18:37;;;;;;;1.65;0.50;;;;;;;;;;5113213;28;20051;-67
2023/12/13 04:21:03;;;;;;;2.70;0.60;;;;;;;;;;5113307;27;20027;-67
2023/12/13 04:23:29;;;;;;;4.32;0.70;;;;;;;;;;5114900;28;20027;-67
2023/12/13 04:25:56;;;;;;;3.42;0.75;;;;;;;;;;5114221;28;20460;-69
2023/12/13 04:28:22;;;;;;;2.40;0.50;;;;;;;;;;5114180;28;20034;-67
2023/12/13 04:30:48;;;;;;;4.68;0.90;;;;;;;;;;5114729;28;20028;-67
2023/12/13 04:33:18;;;;;;;1.85;0.63;;;6.00;99.90;;;;;;5113348;28;20054;-67
2023/12/13 04:35:44;;;;;;;4.18;0.85;;;6.00;99.90;;;;;;5114583;28;20053;-67
2023/12/13 04:38:09;;;;;;;4.57;1.13;;;6.00;99.90;;;;;;5113067;28;20127;-67
2023/12/13 04:40:36;;;;;;;2.40;0.60;;;;;;;;;;5114624;28;20453;-67
2023/12/13 04:43:03;;;;;;;3.22;1.15;;;;;;;;;;5113225;28;20027;-67
2023/12/13 04:45:29;;;;;;;3.00;1.00;;;;;;;;;;5114214;28;20073;-67
2023/12/13 04:47:55;;;;;;;3.05;1.10;;;;;;;;;;5113526;28;20032;-68
2023/12/13 04:50:24;;;;;;;3.70;1.25;;;;;;;;;;5113416;28;20473;-68
2023/12/13 04:52:50;;;;;;;2.50;0.70;;;;;;;;;;5113256;28;20492;-68
2023/12/13 04:55:16;;;;;;;3.47;0.90;;;;;;;;;;5113510;28;20106;-68
2023/12/13 04:57:42;;;;;;;2.85;0.73;;;;;;;;;;5113342;28;20491;-68
2023/12/13 05:00:08;;;;;;;4.13;0.68;;;;;;;;;;5111534;28;20107;-68
2023/12/13 05:02:34;;;;;;;1.70;0.50;;;;;;;;;;5113497;28;20024;-68
2023/12/13 05:05:00;;;;;;;3.40;0.65;;;;;;;;;;5112979;28;20023;-67
2023/12/13 05:07:28;;;;;;;2.30;0.50;;;;;;;;;;5113402;28;20077;-66
2023/12/13 05:09:55;;;;;;;1.67;0.20;;;;;;;;;;5113383;28;20469;-67
2023/12/13 05:12:21;;;;;;;1.40;0.40;;;;;;;;;;5112914;28;20124;-67
2023/12/13 05:14:47;;;;;;;1.65;0.63;;;;;;;;;;5112647;28;20087;-66
2023/12/13 05:17:13;;;;;;;2.83;0.70;;;;;;;;;;5112010;28;20468;-67
2023/12/13 05:19:39;;;;;;;2.45;0.35;;;;;;;;;;5112662;27;20047;-67
2023/12/13 05:22:06;;;;;;;0.93;0.35;;;;;;;;;;5112024;28;20028;-67
2023/12/13 05:24:32;;;;;;;1.85;0.50;;;;;;;;;;5113649;28;20024;-67
2023/12/13 05:26:58;;;;;;;3.10;0.47;;;;;;;;;;5112022;28;20016;-66
2023/12/13 05:29:24;;;;;;;1.45;0.50;;;;;;;;;;5113683;28;20475;-66
2023/12/13 05:31:50;;;;;;;1.77;0.32;;;;;;;;;;5112867;27;20032;-66
2023/12/13 05:34:16;;;;;;;3.33;0.30;;;;;;;;;;5112984;28;20020;-67
2023/12/13 05:36:42;;;;;;;1.90;0.30;;;;;;;;;;5113136;28;20035;-66
2023/12/13 05:39:08;;;;;;;1.77;0.55;;;;;;;;;;5112275;28;20118;-67
2023/12/13 05:41:34;;;;;;;1.75;0.50;;;;;;;;;;5113001;28;20069;-67
2023/12/13 05:44:00;;;;;;;4.20;0.35;;;;;;;;;;5111881;27;20026;-67
2023/12/13 05:46:26;;;;;;;3.45;0.73;;;;;;;;;;5111185;28;20461;-68
2023/12/13 05:48:53;;;;;;;0.98;0.30;;;;;;;;;;5113124;28;20471;-67
2023/12/13 05:51:19;;;;;;;3.20;0.20;;;;;;;;;;5112042;28;20015;-67
2023/12/13 05:53:44;;;;;;;1.75;0.20;;;;;;;;;;5113179;28;20099;-67
2023/12/13 05:56:11;;;;;;;2.55;0.52;;;;;;;;;;5111579;28;20038;-66
2023/12/13 05:58:37;;;;;;;1.08;0.40;;;;;;;;;;5113147;28;20040;-66
2023/12/13 06:01:03;;;;;;;3.90;0.70;;;;;;;;;;5110403;28;20113;-65
2023/12/13 06:03:30;;;;;;;1.02;0.50;;;;;;;;;;5112050;28;20032;-66
2023/12/13 06:05:56;;;;;;;2.15;0.57;;;;;;;;;;5104157;28;20016;-67
2023/12/13 06:08:22;;;;;;;0.68;0.30;;;;;;;;;;5104883;28;20034;-66
2023/12/13 06:10:48;;;;;;;2.08;0.60;;;;;;;;;;5106123;28;20024;-67
2023/12/13 06:13:17;;;;;;;2.40;0.52;;;;;;;;;;5102765;28;20015;-69
2023/12/13 06:15:43;;;;;;;2.03;0.40;;;;;;;;;;5104892;28;20020;-68
2023/12/13 06:18:09;;;;;;;2.05;0.68;;;;;;;;;;5105169;28;20047;-67
2023/12/13 06:20:35;;;;;;;4.63;0.70;;;;;;;;;;5104026;28;20027;-67
2023/12/13 06:23:02;;;;;;;4.63;0.63;;;;;;;;;;5104667;28;20433;-69
2023/12/13 06:25:28;;;;;;;3.00;0.43;;;;;;;;;;5106510;28;20077;-68
2023/12/13 06:27:54;;;;;;;2.05;0.73;;;;;;;;;;5102624;28;20019;-67
2023/12/13 06:30:21;;;;;;;3.20;0.70;;;;;;;;;;5103060;28;20065;-67
2023/12/13 06:32:47;;;;;;;3.45;0.50;;;;;;;;;;5102719;28;20024;-67
2023/12/13 06:35:14;;;;;;;3.88;0.75;;;;;;;;;;5106930;28;20453;-67
2023/12/13 06:37:40;;;;;;;3.58;0.68;;;;;;;;;;5103524;28;20404;-65
2023/12/13 06:40:06;;;;;;;1.92;0.50;;;;;;;;;;5101899;28;20016;-70
2023/12/13 06:42:32;;;;;;;0.77;0.35;;;;;;;;;;5102813;28;20031;-67
2023/12/13 06:44:58;;;;;;;2.95;0.70;;;;;;;;;;5102032;28;20252;-66
2023/12/13 06:47:24;;;;;;;3.13;0.77;;;;;;;;;;5103190;28;20016;-65
2023/12/13 06:49:50;;;;;;;1.73;0.80;;;;;;;;;;5102747;28;20020;-67
2023/12/13 06:52:16;;;;;;;1.42;0.55;;;;;;;;;;5100496;28;20039;-66
2023/12/13 06:54:42;;;;;;;4.20;0.43;;;;;;;;;;5103330;28;20099;-66
2023/12/13 06:57:09;;;;;;;3.53;0.60;;;;;;;;;;5098779;28;20023;-68
2023/12/13 06:59:35;;;;;;;2.35;0.50;;;;;;;;;;5101492;28;20024;-67
2023/12/13 07:02:01;;;;;;;1.83;0.43;;;;;;;;;;5100799;28;20480;-67
2023/12/13 07:04:27;;;;;;;2.35;0.55;;;;;;;;;;5107277;28;20019;-67
2023/12/13 07:06:54;;;;;;;3.75;0.70;;;;;;;;;;5102002;28;20030;-67
2023/12/13 07:09:20;;;;;;;8.18;1.17;;;;;;;;;;5105785;28;20018;-66
2023/12/13 07:11:46;;;;;;;3.28;0.60;;;;;;;;;;5103066;28;20020;-66
2023/12/13 07:14:14;;;;;;;3.92;0.60;;;;;;;;;;5101930;28;20472;-65
2023/12/13 07:16:40;;;;;;;1.98;0.65;;;;;;;;;;5103265;28;20020;-65
2023/12/13 07:19:06;;;;;;;2.17;0.60;;;;;;;;;;5103346;28;20467;-66
2023/12/13 07:21:32;;;;;;;1.70;0.80;;;;;;;;;;5107775;28;20055;-66
2023/12/13 07:23:58;;;;;;;4.38;1.83;;;;;;;;;;5101950;28;20024;-66
2023/12/13 07:26:24;;;;;;;4.57;0.95;;;;;;;;;;5102209;28;20020;-65
2023/12/13 07:28:50;;;;;;;2.80;0.70;;;;;;;;;;5106477;28;20094;-66
2023/12/13 07:31:16;;;;;;;3.42;0.70;;;;;;;;;;5105040;28;20059;-65
2023/12/13 07:33:42;;;;;;;4.53;0.88;;;;;;;;;;5111369;28;20052;-66
2023/12/13 07:36:08;;;;;;;1.38;0.70;;;;;;;;;;5110084;28;20032;-67
2023/12/13 07:38:34;;;;;;;3.85;0.85;;;;;;;;;;5111275;28;20076;-67
2023/12/13 07:41:00;;;;;;;1.35;0.32;;;;;;;;;;5109162;28;20399;-68
2023/12/13 07:43:28;;;;;;;3.90;0.60;;;;;;;;;;5111209;28;20020;-67
2023/12/13 07:45:54;;;;;;;3.25;0.60;;;;;;;;;;5110276;28;20043;-68
2023/12/13 07:48:21;;;;;;;3.67;0.63;;;;;;;;;;5110765;28;20482;-65
2023/12/13 07:50:47;;;;;;;1.55;0.90;;;;;;;;;;5111138;28;20372;-67
2023/12/13 07:53:13;;;;;;;2.03;0.90;;;;;;;;;;5103605;28;20024;-68
2023/12/13 07:55:39;;;;;;;2.00;0.70;;;;;;;;;;5111210;28;20027;-68
2023/12/13 07:58:05;;;;;;;1.05;0.65;;;;;;;;;;5097394;28;20047;-67
2023/12/13 08:00:31;;;;;;;4.03;0.55;;;;;;;;;;5099127;28;20036;-68
2023/12/13 08:02:57;;;;;;;3.83;0.68;;;;;;;;;;5107011;28;20020;-65
2023/12/13 08:05:23;;;;;;;1.85;0.77;;;;;;;;;;5107482;28;20471;-66
2023/12/13 08:07:49;;;;;;;2.63;0.57;;;;;;;;;;5110777;28;20034;-66
2023/12/13 08:10:15;;;;;;;3.60;0.85;;;;;;;;;;5108052;28;20028;-66
2023/12/13 08:12:44;;;;;;;1.70;0.60;;;;;;;;;;5093882;28;20031;-65
2023/12/13 08:15:10;;;;;;;4.35;0.98;;;;;;;;;;5109542;28;20055;-66
2023/12/13 08:17:37;;;;;;;1.13;0.60;;;;;;;;;;5109694;28;20027;-66
2023/12/13 08:20:04;;;;;;;3.13;1.00;;;;;;;;;;5110105;28;20122;-66
2023/12/13 08:22:30;;;;;;;3.53;0.65;;;;;;;;;;5103470;28;20492;-66
2023/12/13 08:24:56;;;;;;;3.35;0.60;;;;;;;;;;5111139;28;20026;-66
2023/12/13 08:27:22;;;;;;;2.50;0.30;;;;;;;;;;5113934;28;20254;-66
2023/12/13 08:29:48;;;;;;;1.38;0.60;;;;;;;;;;5114693;28;20031;-66
2023/12/13 08:32:16;;;;;;;3.72;0.90;;;;;;;;;;5111585;28;20125;-65
2023/12/13 08:34:44;;;;;;;4.07;0.90;;;;;;;;;;5113992;28;20027;-66
2023/12/13 08:37:10;;;;;;;1.92;0.60;;;;;;;;;;5113300;28;20084;-66
2023/12/13 08:39:36;;;;;;;3.50;0.70;;;;;;;;;;5113616;28;20106;-66
2023/12/13 08:42:03;;;;;;;2.35;0.60;;;;;;;;;;5106007;28;20072;-66
2023/12/13 08:44:29;;;;;;;3.17;0.70;;;;;;;;;;5106702;28;20452;-66
2023/12/13 08:46:56;;;;;;;1.42;0.50;;;;;;;;;;5112995;28;20037;-66
2023/12/13 08:49:22;;;;;;;2.83;0.65;;;;;;;;;;5098275;28;20024;-67
2023/12/13 08:51:47;;;;;;;0.80;0.68;;;;;;;;;;5112143;28;20027;-67
2023/12/13 08:54:13;;;;;;;0.93;0.45;;;;;;;;;;5113387;28;20471;-67
2023/12/13 08:56:40;;;;;;;4.03;0.85;;;;;;;;;;5106451;28;20028;-67
2023/12/13 08:59:06;;;;;;;5.35;0.95;;;;;;;;;;5111372;28;20024;-66
2023/12/13 09:01:31;;;;;;;1.27;0.40;;;;;;;;;;5113646;28;20028;-67
2023/12/13 09:03:59;;;;;;;4.95;0.88;;;;;;;;;;5105324;28;20042;-67
2023/12/13 09:06:25;;;;;;;2.45;0.85;;;;;;;;;;5106036;28;20016;-66
2023/12/13 09:08:51;;;;;;;2.53;0.60;;;;;;;;;;5113997;28;20028;-67
2023/12/13 09:11:17;;;;;;;3.33;1.35;;;;;;;;;;5109946;28;20027;-67
2023/12/13 09:13:43;;;;;;;2.53;0.70;;;;;;;;;;5108640;28;20023;-67
2023/12/13 09:16:09;;;;;;;2.45;1.08;;;;;;;;;;5113185;28;20028;-67
2023/12/13 09:18:35;;;;;;;2.97;0.60;;;;;;;;;;5112608;28;20054;-65
2023/12/13 09:21:01;;;;;;;3.15;0.80;;;;;;;;;;5109086;28;20016;-66
2023/12/13 09:23:27;;;;;;;2.33;0.75;;;;;;;;;;5110589;28;20064;-66
2023/12/13 09:25:54;;;;;;;2.05;0.60;;;;;;;;;;5112521;28;20034;-66
2023/12/13 09:28:20;;;;;;;3.75;0.68;;;;;;;;;;5107698;28;20575;-66
2023/12/13 09:30:46;;;;;;;3.70;0.68;;;;;;;;;;5095785;28;20401;-66
2023/12/13 09:33:13;;;;;;;3.05;0.70;;;;;;;;;;5104128;28;20021;-66
2023/12/13 09:35:39;;;;;;;4.40;0.70;;;;;;;;;;5087851;28;20456;-66
2023/12/13 09:38:05;;;;;;;3.67;0.63;;;;;;;;;;5105164;28;20051;-66
2023/12/13 09:40:32;;;;;;;5.50;1.02;;;;;;;;;;5106006;28;20020;-66
2023/12/13 09:42:58;;;;;;;3.95;1.20;;;;;;;;;;5110803;28;20491;-66
2023/12/13 09:45:24;;;;;;;3.33;0.80;;;;;;;;;;5106400;28;20019;-66
2023/12/13 09:47:51;;;;;;;5.00;0.98;;;;;;;;;;5088738;28;20038;-66
2023/12/13 09:50:18;;;;;;;1.73;1.00;;;;;;;;;;5104858;28;20408;-66
2023/12/13 09:52:44;;;;;;;4.10;1.27;;;;;;;;;;5112825;28;20024;-66
2023/12/13 09:55:13;;;;;;;3.05;1.38;;;;;;;;;;5110389;28;20059;-66
2023/12/13 09:57:39;;;;;;;5.57;1.50;;;;;;;;;;5096678;28;20029;-66
2023/12/13 10:00:07;;;;;;;5.03;1.15;;;;;;;;;;5108363;28;20043;-66
2023/12/13 10:02:33;;;;;;;3.35;0.90;;;;;;;;;;5112611;28;20032;-66
2023/12/13 10:04:59;;;;;;;2.13;1.08;;;;;;;;;;5108685;28;20032;-66
2023/12/13 10:07:28;;;;;;;6.15;1.08;;;;;;;;;;5110088;28;20428;-66
2023/12/13 10:09:55;;;;;;;3.35;0.90;;;;;;;;;;5096147;28;20026;-67
2023/12/13 10:12:21;;;;;;;5.18;1.00;;;;;;;;;;5108187;28;20022;-65
2023/12/13 10:14:47;;;;;;;2.85;0.90;;;;;;;;;;5112882;28;20035;-65
2023/12/13 10:17:13;;;;;;;3.60;0.80;;;;;;;;;;5102202;28;20027;-65
2023/12/13 10:19:40;;;;;;;3.50;0.95;;;;;;;;;;5109257;28;20468;-65
2023/12/13 10:22:06;;;;;;;5.57;1.30;;;;;;;;;;5111333;28;20026;-66
2023/12/13 10:24:33;;;;;;;3.20;0.85;;;;;;;;;;5112890;28;20016;-65
2023/12/13 10:26:59;;;;;;;3.78;1.00;;;;;;;;;;5110704;28;20371;-65
2023/12/13 10:29:25;;;;;;;3.85;1.20;;;;;;;;;;5112150;28;20035;-65
2023/12/13 10:31:51;;;;;;;1.77;1.00;;;;;;;;;;5103405;28;20023;-65
2023/12/13 10:34:18;;;;;;;3.33;1.00;;;;;;;;;;5111533;28;20504;-65
2023/12/13 10:36:44;;;;;;;2.55;1.00;;;;;;;;;;5111516;28;20026;-66
2023/12/13 10:39:14;;;;;;;2.88;1.17;;;;;;;;;;5111231;28;20040;-66
2023/12/13 10:41:44;;;;;;;6.38;1.05;;;;;;;;;;5111465;28;20051;-65
2023/12/13 10:44:18;;;;;;;1.77;0.93;;;;;;;;;;5110758;28;20076;-65
2023/12/13 10:46:46;;;;;;;4.40;1.15;;;;;;;;;;5111650;28;20376;-65
2023/12/13 10:49:21;;;;;;;5.20;1.38;;;;;;;;;;5103333;28;20024;-66
2023/12/13 10:51:48;;;;;;;4.90;1.10;;;;;;;;;;5111576;28;20031;-64
2023/12/13 10:54:14;;;;;;;6.90;1.88;;;;;;;;;;5104227;28;20020;-65
2023/12/13 10:56:40;;;;;;;5.55;1.58;;;;;;;;;;5103238;28;20027;-65
2023/12/13 10:59:09;;;;;;;7.43;2.70;;;;;;;;;;5103660;27;20024;-65
2023/12/13 11:01:35;;;;;;;6.05;2.10;;;;;;;;;;5109498;28;20039;-64
2023/12/13 11:04:06;;;;;;;4.18;1.33;;;;;;;;;;5111138;28;20069;-65
2023/12/13 11:06:32;;;;;;;5.05;1.50;;;;;;;;;;5093597;28;20369;-65
2023/12/13 11:09:08;;;;;;;4.10;1.08;;;;;;;;;;5098280;28;20023;-67
2023/12/13 11:11:35;;;;;;;3.45;1.27;;;;;;;;;;5092220;28;20020;-65
2023/12/13 11:14:01;;;;;;;5.03;1.23;;;;;;;;;;5101518;28;20026;-65
2023/12/13 11:16:28;;;;;;;3.10;0.95;;;;;;;;;;5110171;28;20058;-65
2023/12/13 11:18:56;;;;;;;2.17;0.90;;;;;;;;;;5109461;28;20559;-64
2023/12/13 11:21:24;;;;;;;1.98;0.90;;;;;;;;;;5110357;28;20108;-64
2023/12/13 11:23:51;;;;;;;5.40;1.10;;;;;;;;;;5110590;28;20499;-65
2023/12/13 11:26:19;;;;;;;2.25;0.85;;;;;;;;;;5110133;28;20075;-65
2023/12/13 11:28:54;;;;;;;1.42;1.17;;;;;;;;;;5110631;28;20384;-65
2023/12/13 11:31:23;;;;;;;2.63;0.80;;;;;;;;;;5107644;28;20867;-65
2023/12/13 11:33:50;;;;;;;1.52;0.73;;;;;;;;;;5109388;28;20492;-65
2023/12/13 11:36:20;;;;;;;2.58;1.00;;;;;;;;;;5094598;28;20020;-65
2023/12/13 11:38:46;;;;;;;;;;;;;;;;;;5111262;28;20027;-65
2023/12/13 11:41:12;;;;;;;2.38;1.00;;;;;;;;;;5109997;28;20055;-64
2023/12/13 11:43:39;;;;;;;2.53;0.73;;;;;;;;;;5108548;28;20430;-64
2023/12/13 11:46:05;;;;;;;1.90;0.75;;;;;;;;;;5108964;28;20023;-64
2023/12/13 11:48:31;;;;;;;6.63;1.20;;;;;;;;;;5110277;28;20036;-64
2023/12/13 11:50:57;;;;;;;7.38;1.65;;;;;;;;;;5110550;28;20019;-65
2023/12/13 11:53:23;;;;;;;2.85;1.10;;;;;;;;;;5109924;28;20024;-64
2023/12/13 11:55:49;;;;;;;5.03;1.33;;;;;;;;;;5110967;28;20108;-64
2023/12/13 11:58:16;;;;;;;1.83;0.70;;;;;;;;;;5104492;28;20082;-66
2023/12/13 12:00:43;;;;;;;1.17;0.60;;;;;;;;;;5112000;28;20035;-66
2023/12/13 12:03:09;;;;;;;2.33;1.10;;;;;;;;;;5108613;28;20034;-65
2023/12/13 12:05:35;;;;;;;2.08;1.02;;;;;;;;;;5114843;28;20019;-64
2023/12/13 12:08:02;;;;;;;1.58;0.85;;;;;;;;;;5105570;28;20019;-65
2023/12/13 12:10:31;;;;;;;5.22;1.20;;;;;;;;;;5112804;28;20028;-65
2023/12/13 12:13:00;;;;;;;5.65;1.52;;;;;;;;;;5107405;28;20018;-67
2023/12/13 12:15:26;;;;;;;2.33;0.93;;;;;;;;;;5114389;28;20527;-65
2023/12/13 12:17:52;;;;;;;3.30;1.20;;;;;;;;;;5112145;27;20702;-66
2023/12/13 12:20:18;;;;;;;2.28;1.00;;;;;;;;;;5113819;28;20131;-65
2023/12/13 12:22:46;;;;;;;4.07;1.13;;;;;;;;;;5113484;28;20015;-68
2023/12/13 12:25:13;;;;;;;2.20;0.82;;;;;;;;;;5113859;28;20027;-65
2023/12/13 12:27:46;;;;;;;3.50;0.80;;;;;;;;;;5113636;28;20055;-66
2023/12/13 12:30:12;;;;;;;4.45;0.98;;;;;;;;;;5113141;28;20024;-66
2023/12/13 12:32:38;;;;;;;4.13;1.23;;;;;;;;;;5111539;28;20439;-65
2023/12/13 12:35:05;;;;;;;1.08;0.50;;;;;;;;;;5113779;28;20051;-64
2023/12/13 12:37:31;;;;;;;1.85;0.70;;;;;;;;;;5113389;28;20016;-65
2023/12/13 12:39:57;;;;;;;1.98;0.75;;;;;;;;;;5113738;28;20531;-68
2023/12/13 12:42:23;;;;;;;1.65;0.80;;;;;;;;;;5094440;28;20118;-69
2023/12/13 12:44:49;;;;;;;2.80;0.85;;;;;;;;;;5114033;28;20495;-68
2023/12/13 12:47:15;;;;;;;1.83;1.00;;;;;;;;;;5112790;28;20023;-67
2023/12/13 12:49:41;;;;;;;3.60;1.10;;;;;;;;;;5113529;28;20024;-68
2023/12/13 12:52:07;;;;;;;4.80;1.45;;;;;;;;;;5112857;28;20142;-69
2023/12/13 12:54:33;;;;;;;2.60;1.20;;;;;;;;;;5110141;28;20484;-68
2023/12/13 12:56:58;;;;;;;3.50;0.75;;;12.50;99.90;;;;;;5108538;28;20024;-66
2023/12/13 12:59:24;;;;;;;3.55;0.90;;;12.70;99.90;;;;;;5112464;28;20433;-67
2023/12/13 13:01:50;;;;;;;5.07;1.35;;;12.60;99.90;;;;;;5113323;28;20054;-69
2023/12/13 13:04:15;;;;;;;2.47;0.80;;;12.60;99.90;;;;;;5112294;28;20083;-69
2023/12/13 13:06:46;;;;;;;1.85;0.90;;;12.50;99.90;;;;;;5112891;28;20039;-67
2023/12/13 13:09:12;;;;;;;1.83;0.90;;;12.50;99.90;;;;;;5112345;28;20038;-67
2023/12/13 13:11:38;;;;;;;2.92;1.05;;;12.40;99.90;;;;;;5112847;28;20042;-68
2023/12/13 13:14:04;;;;;;;1.80;0.98;;;12.30;99.90;;;;;;5114232;28;20028;-70
2023/12/13 13:16:31;;;;;;;2.58;0.98;;;12.20;99.90;;;;;;5094868;28;20449;-66
2023/12/13 13:18:57;;;;;;;2.28;0.80;;;12.10;99.90;;;;;;5110966;28;20048;-67
2023/12/13 13:21:23;;;;;;;3.47;1.27;;;12.00;99.90;;;;;;5113249;28;20468;-65
2023/12/13 13:23:48;;;;;;;3.08;1.20;;;11.80;99.90;;;;;;5094771;28;20042;-63
2023/12/13 13:26:14;;;;;;;2.70;1.35;;;11.70;99.90;;;;;;5083896;28;20020;-63
2023/12/13 13:28:39;;;;;;;2.65;0.85;;;11.60;99.90;;;;;;5106892;28;20031;-63
2023/12/13 13:31:05;;;;;;;1.80;1.40;;;11.40;99.90;;;;;;5100472;28;20036;-64
2023/12/13 13:33:31;;;;;;;1.35;0.50;;;11.30;99.90;;;;;;5104404;28;20024;-63
2023/12/13 13:35:57;;;;;;;5.00;0.60;;;11.20;99.90;;;;;;5106027;28;20092;-64
2023/12/13 13:38:23;;;;;;;2.33;0.60;;;11.10;99.90;;;;;;5109543;28;20119;-63
2023/12/13 13:40:49;;;;;;;1.23;0.52;;;10.80;99.90;;;;;;5106981;28;20094;-63
2023/12/13 13:43:16;;;;;;;1.13;0.43;;;;;;;;;;5104739;28;20028;-63
2023/12/13 13:45:45;;;;;;;0.77;0.45;;;;;;;;;;5087864;28;20426;-63
2023/12/13 13:48:16;;;;;;;2.10;0.50;;;;;;;;;;5106669;28;20020;-63
2023/12/13 13:50:42;;;;;;;4.20;0.52;;;;;;;;;;5112501;28;20028;-63
2023/12/13 13:53:09;;;;;;;2.30;0.90;;;;;;;;;;5111478;28;20021;-63
2023/12/13 13:55:35;;;;;;;2.35;1.00;;;;;;;;;;5109393;28;20034;-67
2023/12/13 13:58:01;;;;;;;2.33;0.50;;;;;;;;;;5108381;28;20069;-66
2023/12/13 14:00:27;;;;;;;4.68;0.73;;;;;;;;;;5112233;28;20028;-64
2023/12/13 14:02:53;;;;;;;1.40;0.80;;;;;;;;;;5112013;28;20023;-65
2023/12/13 14:05:19;;;;;;;1.65;0.50;;;;;;;;;;5111649;28;20030;-63
2023/12/13 14:07:45;;;;;;;2.78;1.00;;;;;;;;;;5111586;28;20095;-66
2023/12/13 14:10:11;;;;;;;1.70;0.77;;;;;;;;;;5111937;28;20024;-64
2023/12/13 14:12:37;;;;;;;4.13;0.75;;;;;;;;;;5112074;28;20039;-64
2023/12/13 14:15:03;;;;;;;1.48;0.40;;;;;;;;;;5110731;28;20024;-64
2023/12/13 14:17:30;;;;;;;2.15;0.50;;;;;;;;;;5111493;28;20480;-70
2023/12/13 14:19:56;;;;;;;2.08;0.70;;;;;;;;;;5112309;27;20038;-72
2023/12/13 14:22:22;;;;;;;4.00;1.02;;;;;;;;;;5114519;27;20035;-69
2023/12/13 14:24:49;;;;;;;6.40;1.48;;;;;;;;;;5110947;28;20076;-66
2023/12/13 14:27:15;;;;;;;3.08;1.15;;;;;;;;;;5109582;28;20119;-66
2023/12/13 14:29:41;;;;;;;4.03;1.60;;;;;;;;;;5104109;28;20498;-66